sensor_id;sensor_type;location;lat;lon;timestamp;temperature;humidity
14585;DHT22;7379;51.506;11.876;2023-07-29T00:02:18;22.30;67.70
14585;DHT22;7379;51.506;11.876;2023-07-29T00:04:45;22.30;67.70
14585;DHT22;7379;51.506;11.876;2023-07-29T00:07:12;22.30;67.90
14585;DHT22;7379;51.506;11.876;2023-07-29T00:09:40;22.30;67.90
14585;DHT22;7379;51.506;11.876;2023-07-29T00:12:07;22.30;67.80
14585;DHT22;7379;51.506;11.876;2023-07-29T00:14:34;22.30;67.80
14585;DHT22;7379;51.506;11.876;2023-07-29T00:17:00;22.30;68.10
14585;DHT22;7379;51.506;11.876;2023-07-29T00:19:27;22.30;68.00
14585;DHT22;7379;51.506;11.876;2023-07-29T00:21:54;22.30;67.90
14585;DHT22;7379;51.506;11.876;2023-07-29T00:24:21;22.30;67.90
14585;DHT22;7379;51.506;11.876;2023-07-29T00:26:49;22.30;67.90
14585;DHT22;7379;51.506;11.876;2023-07-29T00:29:15;22.30;67.90
14585;DHT22;7379;51.506;11.876;2023-07-29T00:31:42;22.30;67.90
14585;DHT22;7379;51.506;11.876;2023-07-29T00:34:09;22.30;67.90
14585;DHT22;7379;51.506;11.876;2023-07-29T00:36:35;22.30;68.10
14585;DHT22;7379;51.506;11.876;2023-07-29T00:39:02;22.20;68.10
14585;DHT22;7379;51.506;11.876;2023-07-29T00:41:29;22.20;68.20
14585;DHT22;7379;51.506;11.876;2023-07-29T00:43:57;22.20;68.10
14585;DHT22;7379;51.506;11.876;2023-07-29T00:46:24;22.20;68.10
14585;DHT22;7379;51.506;11.876;2023-07-29T00:48:51;22.20;68.30
14585;DHT22;7379;51.506;11.876;2023-07-29T00:51:18;22.20;68.30
14585;DHT22;7379;51.506;11.876;2023-07-29T00:53:44;22.20;68.40
14585;DHT22;7379;51.506;11.876;2023-07-29T00:56:12;22.20;68.40
14585;DHT22;7379;51.506;11.876;2023-07-29T00:58:39;22.20;68.50
14585;DHT22;7379;51.506;11.876;2023-07-29T01:01:07;22.20;68.50
14585;DHT22;7379;51.506;11.876;2023-07-29T01:03:35;22.20;68.50
14585;DHT22;7379;51.506;11.876;2023-07-29T01:06:08;22.20;68.50
14585;DHT22;7379;51.506;11.876;2023-07-29T01:08:45;22.10;68.50
14585;DHT22;7379;51.506;11.876;2023-07-29T01:11:22;22.10;68.50
14585;DHT22;7379;51.506;11.876;2023-07-29T01:13:57;22.10;68.60
14585;DHT22;7379;51.506;11.876;2023-07-29T01:16:31;22.10;68.60
14585;DHT22;7379;51.506;11.876;2023-07-29T01:19:06;22.10;68.70
14585;DHT22;7379;51.506;11.876;2023-07-29T01:21:35;22.10;68.60
14585;DHT22;7379;51.506;11.876;2023-07-29T01:24:03;22.10;68.80
14585;DHT22;7379;51.506;11.876;2023-07-29T01:26:30;22.10;68.80
14585;DHT22;7379;51.506;11.876;2023-07-29T01:28:57;22.10;68.90
14585;DHT22;7379;51.506;11.876;2023-07-29T01:31:30;22.10;68.90
14585;DHT22;7379;51.506;11.876;2023-07-29T01:34:01;22.00;68.80
14585;DHT22;7379;51.506;11.876;2023-07-29T01:36:29;22.00;68.80
14585;DHT22;7379;51.506;11.876;2023-07-29T01:38:57;22.00;68.80
14585;DHT22;7379;51.506;11.876;2023-07-29T01:41:26;22.00;68.80
14585;DHT22;7379;51.506;11.876;2023-07-29T01:43:53;22.00;68.90
14585;DHT22;7379;51.506;11.876;2023-07-29T01:46:21;22.00;68.90
14585;DHT22;7379;51.506;11.876;2023-07-29T01:48:47;22.00;68.80
14585;DHT22;7379;51.506;11.876;2023-07-29T01:51:14;22.00;68.90
14585;DHT22;7379;51.506;11.876;2023-07-29T01:53:41;22.00;68.90
14585;DHT22;7379;51.506;11.876;2023-07-29T01:56:07;22.00;68.90
14585;DHT22;7379;51.506;11.876;2023-07-29T01:58:35;22.00;69.00
14585;DHT22;7379;51.506;11.876;2023-07-29T02:01:02;22.00;69.00
14585;DHT22;7379;51.506;11.876;2023-07-29T02:03:29;22.00;69.00
14585;DHT22;7379;51.506;11.876;2023-07-29T02:05:55;22.00;69.10
14585;DHT22;7379;51.506;11.876;2023-07-29T02:08:22;22.00;69.20
14585;DHT22;7379;51.506;11.876;2023-07-29T02:10:49;21.90;69.10
14585;DHT22;7379;51.506;11.876;2023-07-29T02:13:16;21.90;69.10
14585;DHT22;7379;51.506;11.876;2023-07-29T02:15:44;21.90;69.20
14585;DHT22;7379;51.506;11.876;2023-07-29T02:18:10;21.90;69.20
14585;DHT22;7379;51.506;11.876;2023-07-29T02:20:37;21.90;69.30
14585;DHT22;7379;51.506;11.876;2023-07-29T02:23:04;21.90;69.30
14585;DHT22;7379;51.506;11.876;2023-07-29T02:25:31;21.90;69.40
14585;DHT22;7379;51.506;11.876;2023-07-29T02:27:57;21.90;69.40
14585;DHT22;7379;51.506;11.876;2023-07-29T02:30:24;21.90;69.40
14585;DHT22;7379;51.506;11.876;2023-07-29T02:32:52;21.90;69.40
14585;DHT22;7379;51.506;11.876;2023-07-29T02:35:19;21.90;69.40
14585;DHT22;7379;51.506;11.876;2023-07-29T02:37:46;21.80;70.20
14585;DHT22;7379;51.506;11.876;2023-07-29T02:40:12;21.80;69.50
14585;DHT22;7379;51.506;11.876;2023-07-29T02:42:39;21.80;69.50
14585;DHT22;7379;51.506;11.876;2023-07-29T02:45:07;21.80;69.50
14585;DHT22;7379;51.506;11.876;2023-07-29T02:47:36;21.80;69.50
14585;DHT22;7379;51.506;11.876;2023-07-29T02:50:05;21.80;69.60
14585;DHT22;7379;51.506;11.876;2023-07-29T02:52:31;21.80;69.60
14585;DHT22;7379;51.506;11.876;2023-07-29T02:54:58;21.80;69.60
14585;DHT22;7379;51.506;11.876;2023-07-29T02:57:25;21.80;69.60
14585;DHT22;7379;51.506;11.876;2023-07-29T02:59:52;21.80;69.60
14585;DHT22;7379;51.506;11.876;2023-07-29T03:02:18;21.80;69.60
14585;DHT22;7379;51.506;11.876;2023-07-29T03:04:47;21.80;69.60
14585;DHT22;7379;51.506;11.876;2023-07-29T03:07:15;21.70;69.60
14585;DHT22;7379;51.506;11.876;2023-07-29T03:09:42;21.70;69.60
14585;DHT22;7379;51.506;11.876;2023-07-29T03:12:10;21.70;69.60
14585;DHT22;7379;51.506;11.876;2023-07-29T03:14:37;21.70;69.70
14585;DHT22;7379;51.506;11.876;2023-07-29T03:17:04;21.70;69.80
14585;DHT22;7379;51.506;11.876;2023-07-29T03:19:31;21.70;69.80
14585;DHT22;7379;51.506;11.876;2023-07-29T03:21:57;21.70;69.80
14585;DHT22;7379;51.506;11.876;2023-07-29T03:24:26;21.70;69.80
14585;DHT22;7379;51.506;11.876;2023-07-29T03:26:52;21.70;69.90
14585;DHT22;7379;51.506;11.876;2023-07-29T03:29:19;21.60;69.90
14585;DHT22;7379;51.506;11.876;2023-07-29T03:31:46;21.70;70.10
14585;DHT22;7379;51.506;11.876;2023-07-29T03:34:12;21.60;70.00
14585;DHT22;7379;51.506;11.876;2023-07-29T03:36:39;21.60;70.00
14585;DHT22;7379;51.506;11.876;2023-07-29T03:39:06;21.60;70.00
14585;DHT22;7379;51.506;11.876;2023-07-29T03:41:34;21.60;70.00
14585;DHT22;7379;51.506;11.876;2023-07-29T03:44:01;21.60;70.10
14585;DHT22;7379;51.506;11.876;2023-07-29T03:46:27;21.60;70.00
14585;DHT22;7379;51.506;11.876;2023-07-29T03:48:54;21.60;70.10
14585;DHT22;7379;51.506;11.876;2023-07-29T03:51:21;21.60;70.10
14585;DHT22;7379;51.506;11.876;2023-07-29T03:53:49;21.60;70.10
14585;DHT22;7379;51.506;11.876;2023-07-29T03:56:16;21.50;70.10
14585;DHT22;7379;51.506;11.876;2023-07-29T03:58:45;21.50;70.10
14585;DHT22;7379;51.506;11.876;2023-07-29T04:01:13;21.50;70.10
14585;DHT22;7379;51.506;11.876;2023-07-29T04:03:40;21.50;70.20
14585;DHT22;7379;51.506;11.876;2023-07-29T04:06:06;21.50;70.20
14585;DHT22;7379;51.506;11.876;2023-07-29T04:08:33;21.50;70.20
14585;DHT22;7379;51.506;11.876;2023-07-29T04:11:00;21.50;70.20
14585;DHT22;7379;51.506;11.876;2023-07-29T04:13:27;21.50;70.20
14585;DHT22;7379;51.506;11.876;2023-07-29T04:15:55;21.50;70.30
14585;DHT22;7379;51.506;11.876;2023-07-29T04:18:22;21.50;70.40
14585;DHT22;7379;51.506;11.876;2023-07-29T04:20:48;21.50;70.40
14585;DHT22;7379;51.506;11.876;2023-07-29T04:23:15;21.50;70.40
14585;DHT22;7379;51.506;11.876;2023-07-29T04:25:42;21.50;70.50
14585;DHT22;7379;51.506;11.876;2023-07-29T04:28:08;21.40;70.40
14585;DHT22;7379;51.506;11.876;2023-07-29T04:30:35;21.40;70.40
14585;DHT22;7379;51.506;11.876;2023-07-29T04:33:03;21.40;70.40
14585;DHT22;7379;51.506;11.876;2023-07-29T04:35:30;21.40;70.50
14585;DHT22;7379;51.506;11.876;2023-07-29T04:37:56;21.40;70.50
14585;DHT22;7379;51.506;11.876;2023-07-29T04:40:23;21.40;70.50
14585;DHT22;7379;51.506;11.876;2023-07-29T04:42:51;21.40;70.60
14585;DHT22;7379;51.506;11.876;2023-07-29T04:45:18;21.40;70.60
14585;DHT22;7379;51.506;11.876;2023-07-29T04:47:45;21.40;70.70
14585;DHT22;7379;51.506;11.876;2023-07-29T04:50:13;21.40;70.70
14585;DHT22;7379;51.506;11.876;2023-07-29T04:52:39;21.40;70.70
14585;DHT22;7379;51.506;11.876;2023-07-29T04:55:06;21.40;70.70
14585;DHT22;7379;51.506;11.876;2023-07-29T04:57:33;21.40;70.70
14585;DHT22;7379;51.506;11.876;2023-07-29T05:00:00;21.40;70.70
14585;DHT22;7379;51.506;11.876;2023-07-29T05:02:28;21.40;70.70
14585;DHT22;7379;51.506;11.876;2023-07-29T05:04:54;21.40;70.80
14585;DHT22;7379;51.506;11.876;2023-07-29T05:07:22;21.40;70.80
14585;DHT22;7379;51.506;11.876;2023-07-29T05:09:49;21.40;70.80
14585;DHT22;7379;51.506;11.876;2023-07-29T05:12:16;21.40;70.70
14585;DHT22;7379;51.506;11.876;2023-07-29T05:14:43;21.40;70.40
14585;DHT22;7379;51.506;11.876;2023-07-29T05:17:09;21.40;71.00
14585;DHT22;7379;51.506;11.876;2023-07-29T05:19:36;21.40;71.60
14585;DHT22;7379;51.506;11.876;2023-07-29T05:22:03;21.40;71.50
14585;DHT22;7379;51.506;11.876;2023-07-29T05:24:31;21.50;71.60
14585;DHT22;7379;51.506;11.876;2023-07-29T05:26:58;21.60;71.70
14585;DHT22;7379;51.506;11.876;2023-07-29T05:29:25;21.60;71.60
14585;DHT22;7379;51.506;11.876;2023-07-29T05:31:51;21.60;71.40
14585;DHT22;7379;51.506;11.876;2023-07-29T05:34:18;21.70;71.30
14585;DHT22;7379;51.506;11.876;2023-07-29T05:36:45;21.70;71.50
14585;DHT22;7379;51.506;11.876;2023-07-29T05:39:11;21.70;71.20
14585;DHT22;7379;51.506;11.876;2023-07-29T05:41:40;21.80;71.30
14585;DHT22;7379;51.506;11.876;2023-07-29T05:44:06;21.80;71.20
14585;DHT22;7379;51.506;11.876;2023-07-29T05:46:33;21.80;71.10
14585;DHT22;7379;51.506;11.876;2023-07-29T05:49:00;21.80;71.00
14585;DHT22;7379;51.506;11.876;2023-07-29T05:51:27;21.90;71.20
14585;DHT22;7379;51.506;11.876;2023-07-29T05:53:54;21.90;71.20
14585;DHT22;7379;51.506;11.876;2023-07-29T05:56:20;21.90;71.20
14585;DHT22;7379;51.506;11.876;2023-07-29T05:58:48;21.90;71.10
14585;DHT22;7379;51.506;11.876;2023-07-29T06:01:16;21.90;71.10
14585;DHT22;7379;51.506;11.876;2023-07-29T06:03:42;21.90;71.20
14585;DHT22;7379;51.506;11.876;2023-07-29T06:06:09;21.80;71.20
14585;DHT22;7379;51.506;11.876;2023-07-29T06:08:36;21.80;71.40
14585;DHT22;7379;51.506;11.876;2023-07-29T06:11:03;21.80;71.50
14585;DHT22;7379;51.506;11.876;2023-07-29T06:13:31;21.80;71.60
14585;DHT22;7379;51.506;11.876;2023-07-29T06:15:59;21.70;71.70
14585;DHT22;7379;51.506;11.876;2023-07-29T06:18:26;21.70;71.80
14585;DHT22;7379;51.506;11.876;2023-07-29T06:20:53;21.70;72.00
14585;DHT22;7379;51.506;11.876;2023-07-29T06:23:19;21.70;72.00
14585;DHT22;7379;51.506;11.876;2023-07-29T06:25:46;21.70;71.80
14585;DHT22;7379;51.506;11.876;2023-07-29T06:28:13;21.70;71.80
14585;DHT22;7379;51.506;11.876;2023-07-29T06:30:40;21.80;71.90
14585;DHT22;7379;51.506;11.876;2023-07-29T06:33:08;21.80;72.20
14585;DHT22;7379;51.506;11.876;2023-07-29T06:35:35;21.80;72.30
14585;DHT22;7379;51.506;11.876;2023-07-29T06:38:01;21.80;72.30
14585;DHT22;7379;51.506;11.876;2023-07-29T06:40:28;21.80;72.20
14585;DHT22;7379;51.506;11.876;2023-07-29T06:42:55;21.80;72.30
14585;DHT22;7379;51.506;11.876;2023-07-29T06:45:21;21.80;72.30
14585;DHT22;7379;51.506;11.876;2023-07-29T06:47:48;21.80;72.20
14585;DHT22;7379;51.506;11.876;2023-07-29T06:50:16;21.80;72.20
14585;DHT22;7379;51.506;11.876;2023-07-29T06:52:43;21.80;72.10
14585;DHT22;7379;51.506;11.876;2023-07-29T06:55:09;21.80;72.20
14585;DHT22;7379;51.506;11.876;2023-07-29T06:57:36;21.80;72.20
14585;DHT22;7379;51.506;11.876;2023-07-29T07:00:04;21.80;72.20
14585;DHT22;7379;51.506;11.876;2023-07-29T07:02:31;21.80;72.20
14585;DHT22;7379;51.506;11.876;2023-07-29T07:04:58;21.80;72.30
14585;DHT22;7379;51.506;11.876;2023-07-29T07:07:26;21.80;72.30
14585;DHT22;7379;51.506;11.876;2023-07-29T07:09:52;21.80;72.30
14585;DHT22;7379;51.506;11.876;2023-07-29T07:12:19;21.80;72.30
14585;DHT22;7379;51.506;11.876;2023-07-29T07:14:46;21.70;72.30
14585;DHT22;7379;51.506;11.876;2023-07-29T07:17:12;21.70;72.30
14585;DHT22;7379;51.506;11.876;2023-07-29T07:19:39;21.70;72.30
14585;DHT22;7379;51.506;11.876;2023-07-29T07:22:06;21.70;72.30
14585;DHT22;7379;51.506;11.876;2023-07-29T07:24:34;21.70;72.40
14585;DHT22;7379;51.506;11.876;2023-07-29T07:27:01;21.70;72.40
14585;DHT22;7379;51.506;11.876;2023-07-29T07:29:28;21.70;72.50
14585;DHT22;7379;51.506;11.876;2023-07-29T07:31:56;21.70;72.40
14585;DHT22;7379;51.506;11.876;2023-07-29T07:34:23;21.70;72.50
14585;DHT22;7379;51.506;11.876;2023-07-29T07:36:50;21.70;72.90
14585;DHT22;7379;51.506;11.876;2023-07-29T07:39:17;21.70;72.80
14585;DHT22;7379;51.506;11.876;2023-07-29T07:41:45;21.70;72.80
14585;DHT22;7379;51.506;11.876;2023-07-29T07:44:13;21.70;72.80
14585;DHT22;7379;51.506;11.876;2023-07-29T07:46:43;21.70;72.70
14585;DHT22;7379;51.506;11.876;2023-07-29T07:49:09;21.70;72.60
14585;DHT22;7379;51.506;11.876;2023-07-29T07:51:36;21.70;72.70
14585;DHT22;7379;51.506;11.876;2023-07-29T07:54:03;21.80;72.90
14585;DHT22;7379;51.506;11.876;2023-07-29T07:56:29;21.80;73.00
14585;DHT22;7379;51.506;11.876;2023-07-29T07:58:58;21.80;73.20
14585;DHT22;7379;51.506;11.876;2023-07-29T08:01:24;21.90;72.60
14585;DHT22;7379;51.506;11.876;2023-07-29T08:03:51;21.90;72.70
14585;DHT22;7379;51.506;11.876;2023-07-29T08:06:18;21.90;72.40
14585;DHT22;7379;51.506;11.876;2023-07-29T08:08:44;21.90;72.60
14585;DHT22;7379;51.506;11.876;2023-07-29T08:11:11;22.00;72.60
14585;DHT22;7379;51.506;11.876;2023-07-29T08:13:38;22.00;72.60
14585;DHT22;7379;51.506;11.876;2023-07-29T08:16:06;22.00;72.60
14585;DHT22;7379;51.506;11.876;2023-07-29T08:18:33;22.10;72.60
14585;DHT22;7379;51.506;11.876;2023-07-29T08:21:00;22.10;72.50
14585;DHT22;7379;51.506;11.876;2023-07-29T08:23:28;22.10;72.50
14585;DHT22;7379;51.506;11.876;2023-07-29T08:25:57;22.10;72.30
14585;DHT22;7379;51.506;11.876;2023-07-29T08:28:27;22.10;72.40
14585;DHT22;7379;51.506;11.876;2023-07-29T08:30:54;22.10;72.40
14585;DHT22;7379;51.506;11.876;2023-07-29T08:33:23;22.10;73.00
14585;DHT22;7379;51.506;11.876;2023-07-29T08:35:49;22.10;72.20
14585;DHT22;7379;51.506;11.876;2023-07-29T08:38:16;22.10;72.20
14585;DHT22;7379;51.506;11.876;2023-07-29T08:40:58;22.10;72.00
14585;DHT22;7379;51.506;11.876;2023-07-29T08:43:29;22.10;72.10
14585;DHT22;7379;51.506;11.876;2023-07-29T08:45:57;22.10;72.30
14585;DHT22;7379;51.506;11.876;2023-07-29T08:48:31;22.20;72.50
14585;DHT22;7379;51.506;11.876;2023-07-29T08:51:00;22.20;72.20
14585;DHT22;7379;51.506;11.876;2023-07-29T08:53:27;22.20;72.30
14585;DHT22;7379;51.506;11.876;2023-07-29T08:55:55;22.20;72.20
14585;DHT22;7379;51.506;11.876;2023-07-29T08:58:28;22.30;72.00
14585;DHT22;7379;51.506;11.876;2023-07-29T09:00:55;22.30;72.10
14585;DHT22;7379;51.506;11.876;2023-07-29T09:03:22;22.30;71.90
14585;DHT22;7379;51.506;11.876;2023-07-29T09:05:50;22.40;71.90
14585;DHT22;7379;51.506;11.876;2023-07-29T09:08:17;22.40;71.60
14585;DHT22;7379;51.506;11.876;2023-07-29T09:10:44;22.40;71.60
14585;DHT22;7379;51.506;11.876;2023-07-29T09:13:11;22.40;71.60
14585;DHT22;7379;51.506;11.876;2023-07-29T09:15:38;22.40;71.50
14585;DHT22;7379;51.506;11.876;2023-07-29T09:18:09;22.50;71.30
14585;DHT22;7379;51.506;11.876;2023-07-29T09:20:36;22.50;71.10
14585;DHT22;7379;51.506;11.876;2023-07-29T09:23:07;22.60;71.30
14585;DHT22;7379;51.506;11.876;2023-07-29T09:25:35;22.60;70.90
14585;DHT22;7379;51.506;11.876;2023-07-29T09:28:08;22.60;70.80
14585;DHT22;7379;51.506;11.876;2023-07-29T09:30:36;22.70;70.80
14585;DHT22;7379;51.506;11.876;2023-07-29T09:33:03;22.70;70.80
14585;DHT22;7379;51.506;11.876;2023-07-29T09:35:32;22.70;70.70
14585;DHT22;7379;51.506;11.876;2023-07-29T09:37:59;22.70;70.60
14585;DHT22;7379;51.506;11.876;2023-07-29T09:40:27;22.70;70.50
14585;DHT22;7379;51.506;11.876;2023-07-29T09:42:55;22.70;70.40
14585;DHT22;7379;51.506;11.876;2023-07-29T09:45:22;22.80;70.30
14585;DHT22;7379;51.506;11.876;2023-07-29T09:47:49;22.80;70.30
14585;DHT22;7379;51.506;11.876;2023-07-29T09:50:16;22.80;70.30
14585;DHT22;7379;51.506;11.876;2023-07-29T09:52:44;22.80;70.30
14585;DHT22;7379;51.506;11.876;2023-07-29T09:55:12;22.80;70.20
14585;DHT22;7379;51.506;11.876;2023-07-29T09:57:41;22.80;70.90
14585;DHT22;7379;51.506;11.876;2023-07-29T10:00:11;22.80;70.00
14585;DHT22;7379;51.506;11.876;2023-07-29T10:02:39;22.80;69.90
14585;DHT22;7379;51.506;11.876;2023-07-29T10:05:07;22.80;69.80
14585;DHT22;7379;51.506;11.876;2023-07-29T10:07:34;22.80;69.80
14585;DHT22;7379;51.506;11.876;2023-07-29T10:10:04;22.80;69.80
14585;DHT22;7379;51.506;11.876;2023-07-29T10:12:31;22.80;69.60
14585;DHT22;7379;51.506;11.876;2023-07-29T10:15:03;22.90;69.70
14585;DHT22;7379;51.506;11.876;2023-07-29T10:17:30;22.90;69.50
14585;DHT22;7379;51.506;11.876;2023-07-29T10:19:58;22.90;69.50
14585;DHT22;7379;51.506;11.876;2023-07-29T10:22:28;22.90;69.70
14585;DHT22;7379;51.506;11.876;2023-07-29T10:25:02;22.90;69.60
14585;DHT22;7379;51.506;11.876;2023-07-29T10:27:30;22.90;69.40
14585;DHT22;7379;51.506;11.876;2023-07-29T10:30:00;22.90;69.40
14585;DHT22;7379;51.506;11.876;2023-07-29T10:32:27;23.00;69.30
14585;DHT22;7379;51.506;11.876;2023-07-29T10:34:54;23.00;69.30
14585;DHT22;7379;51.506;11.876;2023-07-29T10:37:22;23.00;69.20
14585;DHT22;7379;51.506;11.876;2023-07-29T10:39:53;23.00;69.10
14585;DHT22;7379;51.506;11.876;2023-07-29T10:42:20;23.00;69.10
14585;DHT22;7379;51.506;11.876;2023-07-29T10:44:51;23.10;69.00
14585;DHT22;7379;51.506;11.876;2023-07-29T10:47:21;23.10;68.80
14585;DHT22;7379;51.506;11.876;2023-07-29T10:49:50;23.20;68.50
14585;DHT22;7379;51.506;11.876;2023-07-29T10:52:29;23.20;68.50
14585;DHT22;7379;51.506;11.876;2023-07-29T10:54:56;23.30;68.30
14585;DHT22;7379;51.506;11.876;2023-07-29T10:57:31;23.30;68.10
14585;DHT22;7379;51.506;11.876;2023-07-29T10:59:59;23.30;68.10
14585;DHT22;7379;51.506;11.876;2023-07-29T11:02:31;23.40;68.10
14585;DHT22;7379;51.506;11.876;2023-07-29T11:04:59;23.30;68.00
14585;DHT22;7379;51.506;11.876;2023-07-29T11:07:30;23.30;68.20
14585;DHT22;7379;51.506;11.876;2023-07-29T11:10:02;23.30;68.20
14585;DHT22;7379;51.506;11.876;2023-07-29T11:12:40;23.30;68.10
14585;DHT22;7379;51.506;11.876;2023-07-29T11:15:17;23.30;68.10
14585;DHT22;7379;51.506;11.876;2023-07-29T11:17:46;23.30;68.20
14585;DHT22;7379;51.506;11.876;2023-07-29T11:20:14;23.20;68.00
14585;DHT22;7379;51.506;11.876;2023-07-29T11:22:41;23.20;67.90
14585;DHT22;7379;51.506;11.876;2023-07-29T11:25:09;23.20;68.00
14585;DHT22;7379;51.506;11.876;2023-07-29T11:27:37;23.20;68.20
14585;DHT22;7379;51.506;11.876;2023-07-29T11:30:05;23.30;68.00
14585;DHT22;7379;51.506;11.876;2023-07-29T11:32:34;23.30;68.00
14585;DHT22;7379;51.506;11.876;2023-07-29T11:35:03;23.30;68.10
14585;DHT22;7379;51.506;11.876;2023-07-29T11:37:30;23.20;68.00
14585;DHT22;7379;51.506;11.876;2023-07-29T11:39:57;23.20;68.10
14585;DHT22;7379;51.506;11.876;2023-07-29T11:42:24;23.20;68.20
14585;DHT22;7379;51.506;11.876;2023-07-29T11:44:52;23.20;68.20
14585;DHT22;7379;51.506;11.876;2023-07-29T11:47:19;23.20;68.20
14585;DHT22;7379;51.506;11.876;2023-07-29T11:49:45;23.20;68.30
14585;DHT22;7379;51.506;11.876;2023-07-29T11:52:14;23.20;68.40
14585;DHT22;7379;51.506;11.876;2023-07-29T11:54:44;23.10;68.50
14585;DHT22;7379;51.506;11.876;2023-07-29T11:57:12;23.10;68.50
14585;DHT22;7379;51.506;11.876;2023-07-29T11:59:40;23.10;68.60
14585;DHT22;7379;51.506;11.876;2023-07-29T12:02:10;23.20;68.80
14585;DHT22;7379;51.506;11.876;2023-07-29T12:04:38;23.20;68.80
14585;DHT22;7379;51.506;11.876;2023-07-29T12:07:05;23.10;68.70
14585;DHT22;7379;51.506;11.876;2023-07-29T12:09:34;23.10;68.60
14585;DHT22;7379;51.506;11.876;2023-07-29T12:12:01;23.10;68.40
14585;DHT22;7379;51.506;11.876;2023-07-29T12:14:28;23.10;68.40
14585;DHT22;7379;51.506;11.876;2023-07-29T12:16:55;23.20;68.50
14585;DHT22;7379;51.506;11.876;2023-07-29T12:19:22;23.20;68.40
14585;DHT22;7379;51.506;11.876;2023-07-29T12:21:50;23.20;68.50
14585;DHT22;7379;51.506;11.876;2023-07-29T12:24:17;23.30;68.30
14585;DHT22;7379;51.506;11.876;2023-07-29T12:26:47;23.40;68.20
14585;DHT22;7379;51.506;11.876;2023-07-29T12:29:15;23.40;67.90
14585;DHT22;7379;51.506;11.876;2023-07-29T12:31:42;23.50;67.90
14585;DHT22;7379;51.506;11.876;2023-07-29T12:34:09;23.60;67.70
14585;DHT22;7379;51.506;11.876;2023-07-29T12:36:44;23.70;67.10
14585;DHT22;7379;51.506;11.876;2023-07-29T12:39:21;23.80;67.10
14585;DHT22;7379;51.506;11.876;2023-07-29T12:41:50;23.80;67.00
14585;DHT22;7379;51.506;11.876;2023-07-29T12:44:17;23.80;66.70
14585;DHT22;7379;51.506;11.876;2023-07-29T12:46:44;23.90;66.60
14585;DHT22;7379;51.506;11.876;2023-07-29T12:49:11;23.90;66.20
14585;DHT22;7379;51.506;11.876;2023-07-29T12:51:38;24.00;66.10
14585;DHT22;7379;51.506;11.876;2023-07-29T12:54:05;24.00;65.80
14585;DHT22;7379;51.506;11.876;2023-07-29T12:56:32;24.00;65.60
14585;DHT22;7379;51.506;11.876;2023-07-29T12:59:01;24.00;65.50
14585;DHT22;7379;51.506;11.876;2023-07-29T13:01:28;24.00;65.30
14585;DHT22;7379;51.506;11.876;2023-07-29T13:03:55;24.10;65.60
14585;DHT22;7379;51.506;11.876;2023-07-29T13:06:23;24.10;65.50
14585;DHT22;7379;51.506;11.876;2023-07-29T13:08:49;24.30;65.00
14585;DHT22;7379;51.506;11.876;2023-07-29T13:11:16;24.40;64.40
14585;DHT22;7379;51.506;11.876;2023-07-29T13:13:43;24.60;63.60
14585;DHT22;7379;51.506;11.876;2023-07-29T13:16:12;24.70;63.70
14585;DHT22;7379;51.506;11.876;2023-07-29T13:18:39;24.80;63.00
14585;DHT22;7379;51.506;11.876;2023-07-29T13:21:06;24.90;62.40
14585;DHT22;7379;51.506;11.876;2023-07-29T13:23:33;25.00;61.70
14585;DHT22;7379;51.506;11.876;2023-07-29T13:26:00;25.10;61.50
14585;DHT22;7379;51.506;11.876;2023-07-29T13:28:26;25.20;61.10
14585;DHT22;7379;51.506;11.876;2023-07-29T13:30:53;25.40;60.60
14585;DHT22;7379;51.506;11.876;2023-07-29T13:33:21;25.40;60.60
14585;DHT22;7379;51.506;11.876;2023-07-29T13:35:48;25.40;60.40
14585;DHT22;7379;51.506;11.876;2023-07-29T13:38:15;25.50;60.00
14585;DHT22;7379;51.506;11.876;2023-07-29T13:40:42;25.50;59.60
14585;DHT22;7379;51.506;11.876;2023-07-29T13:43:09;25.40;60.20
14585;DHT22;7379;51.506;11.876;2023-07-29T13:45:36;25.40;60.40
14585;DHT22;7379;51.506;11.876;2023-07-29T13:48:03;25.30;60.00
14585;DHT22;7379;51.506;11.876;2023-07-29T13:50:31;25.20;59.90
14585;DHT22;7379;51.506;11.876;2023-07-29T13:52:58;25.10;60.20
14585;DHT22;7379;51.506;11.876;2023-07-29T13:55:24;24.90;60.60
14585;DHT22;7379;51.506;11.876;2023-07-29T13:57:52;24.80;60.80
14585;DHT22;7379;51.506;11.876;2023-07-29T14:00:19;24.70;60.80
14585;DHT22;7379;51.506;11.876;2023-07-29T14:02:46;24.60;61.50
14585;DHT22;7379;51.506;11.876;2023-07-29T14:05:12;24.50;60.70
14585;DHT22;7379;51.506;11.876;2023-07-29T14:07:41;24.40;60.60
14585;DHT22;7379;51.506;11.876;2023-07-29T14:10:07;24.40;60.30
14585;DHT22;7379;51.506;11.876;2023-07-29T14:12:34;24.30;60.60
14585;DHT22;7379;51.506;11.876;2023-07-29T14:15:01;24.20;61.00
14585;DHT22;7379;51.506;11.876;2023-07-29T14:17:28;24.20;62.60
14585;DHT22;7379;51.506;11.876;2023-07-29T14:19:54;24.20;62.40
14585;DHT22;7379;51.506;11.876;2023-07-29T14:22:21;24.10;64.50
14585;DHT22;7379;51.506;11.876;2023-07-29T14:24:49;24.00;65.00
14585;DHT22;7379;51.506;11.876;2023-07-29T14:27:16;24.00;65.70
14585;DHT22;7379;51.506;11.876;2023-07-29T14:29:43;23.90;66.10
14585;DHT22;7379;51.506;11.876;2023-07-29T14:32:09;23.80;66.30
14585;DHT22;7379;51.506;11.876;2023-07-29T14:34:36;23.80;66.60
14585;DHT22;7379;51.506;11.876;2023-07-29T14:37:04;23.70;66.80
14585;DHT22;7379;51.506;11.876;2023-07-29T14:39:31;23.70;67.00
14585;DHT22;7379;51.506;11.876;2023-07-29T14:41:59;23.70;67.10
14585;DHT22;7379;51.506;11.876;2023-07-29T14:44:26;23.60;67.10
14585;DHT22;7379;51.506;11.876;2023-07-29T14:46:53;23.60;67.20
14585;DHT22;7379;51.506;11.876;2023-07-29T14:49:20;23.60;67.20
14585;DHT22;7379;51.506;11.876;2023-07-29T14:51:47;23.60;67.20
14585;DHT22;7379;51.506;11.876;2023-07-29T14:54:14;23.60;67.20
14585;DHT22;7379;51.506;11.876;2023-07-29T14:56:41;23.60;67.30
14585;DHT22;7379;51.506;11.876;2023-07-29T14:59:09;23.50;67.20
14585;DHT22;7379;51.506;11.876;2023-07-29T15:01:35;23.50;67.20
14585;DHT22;7379;51.506;11.876;2023-07-29T15:04:02;23.50;67.20
14585;DHT22;7379;51.506;11.876;2023-07-29T15:06:29;23.50;67.30
14585;DHT22;7379;51.506;11.876;2023-07-29T15:08:56;23.50;67.50
14585;DHT22;7379;51.506;11.876;2023-07-29T15:11:23;23.50;68.10
14585;DHT22;7379;51.506;11.876;2023-07-29T15:13:49;23.60;67.80
14585;DHT22;7379;51.506;11.876;2023-07-29T15:16:17;23.70;68.10
14585;DHT22;7379;51.506;11.876;2023-07-29T15:18:44;23.70;67.90
14585;DHT22;7379;51.506;11.876;2023-07-29T15:21:11;23.70;67.80
14585;DHT22;7379;51.506;11.876;2023-07-29T15:23:38;23.70;67.70
14585;DHT22;7379;51.506;11.876;2023-07-29T15:26:04;23.70;68.20
14585;DHT22;7379;51.506;11.876;2023-07-29T15:28:31;23.80;68.00
14585;DHT22;7379;51.506;11.876;2023-07-29T15:30:58;23.90;68.40
14585;DHT22;7379;51.506;11.876;2023-07-29T15:33:26;23.90;68.00